Time;durP1;ratioP1;P1;durP2;ratioP2;P2;SDS_P1;SDS_P2;PMS_P1;PMS_P2;Temp;Humidity;BMP_temperature;BMP_pressure;BME280_temperature;BME280_humidity;BME280_pressure;Samples;Min_cycle;Max_cycle;Signal;HPM_P1;HPM_P2
2023/08/06 00:00:08;;;;;;;13.90;11.17;;;;;;;-141.97;71.54;47434.50;5050410;28;20580;-78
2023/08/06 00:02:34;;;;;;;16.87;10.43;;;;;;;-141.97;71.86;47401.84;5050007;28;20201;-78
2023/08/06 00:04:59;;;;;;;15.57;11.23;;;;;;;-141.97;71.98;47373.00;5050218;28;20169;-78
2023/08/06 00:07:25;;;;;;;14.37;10.87;;;;;;;-141.97;71.96;47426.81;5050162;28;20166;-78
2023/08/06 00:09:50;;;;;;;17.00;11.20;;;;;;;-141.97;72.03;47419.13;5050117;28;20165;-81
2023/08/06 00:12:15;;;;;;;16.40;11.20;;;;;;;-141.97;72.81;47374.94;5050068;28;20169;-80
2023/08/06 00:14:41;;;;;;;21.63;11.53;;;;;;;-141.97;73.07;47409.53;5051576;28;20193;-80
2023/08/06 00:17:06;;;;;;;19.80;11.40;;;;;;;-141.97;72.90;47653.63;5052990;28;20165;-80
2023/08/06 00:19:32;;;;;;;13.70;11.20;;;;;;;-141.97;74.36;47421.06;5051783;28;20204;-80
2023/08/06 00:21:57;;;;;;;15.13;11.33;;;;;;;-141.97;74.89;47424.91;5050510;28;20176;-81
2023/08/06 00:24:23;;;;;;;17.47;11.30;;;;;;;-141.97;75.15;47444.13;5050203;28;20201;-81
2023/08/06 00:26:48;;;;;;;15.00;11.63;;;;;;;-141.97;75.22;47422.97;5050542;28;20232;-80
2023/08/06 00:29:14;;;;;;;14.17;11.50;;;;;;;-141.97;75.36;47657.47;5049778;28;20189;-81
2023/08/06 00:31:39;;;;;;;15.90;12.13;;;;;;;-141.97;76.54;47569.06;5049706;28;20175;-81
2023/08/06 00:34:05;;;;;;;17.00;11.93;;;;;;;-141.97;76.58;47453.72;5050129;28;20687;-81
2023/08/06 00:36:30;;;;;;;15.80;13.23;;;;;;;-141.97;77.02;47509.47;5057004;28;20142;-79
2023/08/06 00:38:55;;;;;;;16.30;12.73;;;;;;;-141.97;77.16;47346.09;5073749;28;20209;-79
2023/08/06 00:41:21;;;;;;;19.47;12.70;;;;;;;-141.97;77.35;47447.97;5034091;28;20268;-82
2023/08/06 00:43:46;;;;;;;17.93;12.30;;;;;;;-141.97;77.96;47588.28;5049849;28;20177;-81
2023/08/06 00:46:12;;;;;;;16.20;12.70;;;;;;;-141.97;77.63;47426.81;5049363;28;20240;-81
2023/08/06 00:48:38;;;;;;;17.20;13.07;;;;;;;-141.97;78.36;47446.03;5049495;28;20170;-82
2023/08/06 00:51:03;;;;;;;19.00;12.20;;;;;;;-141.97;78.04;47424.91;5049829;28;20161;-80
2023/08/06 00:53:28;;;;;;;15.60;12.73;;;;;;;-141.97;79.13;47417.22;5053243;28;20185;-82
2023/08/06 00:55:54;;;;;;;16.43;12.23;;;;;;;-141.97;78.82;47615.19;5053777;28;20676;-82
2023/08/06 00:58:20;;;;;;;18.97;13.27;;;;;;;-141.97;79.61;47553.69;5069679;28;20177;-81
2023/08/06 01:00:45;;;;;;;18.67;13.10;;;;;;;-141.97;79.73;47219.25;5053598;28;20515;-82
2023/08/06 01:03:11;;;;;;;16.83;13.40;;;;;;;-141.97;79.55;47465.25;5053529;28;20162;-82
2023/08/06 01:05:36;;;;;;;16.20;12.37;;;;;;;-141.97;79.75;47215.41;5053507;28;20563;-81
2023/08/06 01:08:37;;;;;;;16.87;13.03;;;;;;;-141.97;80.04;47430.66;5053837;28;20162;-82
2023/08/06 01:11:22;;;;;;;18.23;13.20;;;;;;;-141.97;80.15;47471.03;5053536;28;20219;-81
2023/08/06 01:13:52;;;;;;;16.23;12.93;;;;;;;-141.97;79.65;47432.59;5053540;28;20213;-81
2023/08/06 01:16:20;;;;;;;17.33;13.10;;;;;;;-141.97;79.53;47519.06;5053234;28;20183;-81
2023/08/06 01:18:49;;;;;;;18.57;13.00;;;;;;;-141.97;79.32;47444.13;5053259;28;20165;-81
2023/08/06 01:21:17;;;;;;;15.10;13.13;;;;;;;-141.97;78.93;47367.25;5035323;28;20169;-81
2023/08/06 01:23:43;;;;;;;16.90;13.53;;;;;;;-141.97;77.92;47426.81;5053688;28;20180;-81
2023/08/06 01:26:11;;;;;;;19.27;12.60;;;;;;;-141.97;77.49;47438.34;5053584;28;20166;-82
2023/08/06 01:28:49;;;;;;;16.27;12.10;;;;;;;-141.97;77.21;47390.31;5038439;28;20235;-82
2023/08/06 01:31:22;;;;;;;19.00;12.73;;;;;;;-141.97;77.34;47446.03;5053454;28;20519;-81
2023/08/06 01:33:49;;;;;;;16.33;12.23;;;;;;;-141.97;77.25;47521.00;5053190;28;20445;-83
2023/08/06 01:36:18;;;;;;;17.27;12.73;;;;;;;-141.97;77.44;47442.19;5053216;28;20162;-81
2023/08/06 01:38:44;;;;;;;17.50;12.37;;;;;;;-141.97;77.26;47461.41;5053119;28;20225;-82
2023/08/06 01:41:10;;;;;;;16.47;12.70;;;;;;;-141.97;77.98;47582.50;5053593;28;20608;-82
2023/08/06 01:43:35;;;;;;;20.93;13.47;;;;;;;-141.97;78.53;47273.06;5053580;28;20618;-82
2023/08/06 01:46:00;;;;;;;16.50;12.80;;;;;;;-141.97;78.78;47446.03;5055048;28;20188;-82
2023/08/06 01:48:26;;;;;;;17.13;12.50;;;;;;;-141.97;78.84;47403.75;5055922;28;20161;-81
2023/08/06 01:50:51;;;;;;;17.60;13.40;;;;;;;-141.97;79.08;47157.75;5035861;28;20188;-81
2023/08/06 01:53:17;;;;;;;15.27;12.80;;;;;;;-141.97;78.45;47565.22;5052885;28;20220;-81
2023/08/06 01:55:47;;;;;;;18.97;13.40;;;;;;;-141.97;78.76;47169.28;5052814;28;20161;-81
2023/08/06 01:58:12;;;;;;;17.10;12.77;;;;;;;-141.97;78.51;47449.88;5053095;28;20247;-81
2023/08/06 02:00:38;;;;;;;19.13;12.33;;;;;;;-141.97;77.71;47461.41;5052821;28;20212;-81
2023/08/06 02:03:03;;;;;;;17.37;13.20;;;;;;;-141.97;77.14;47503.69;5051961;28;20161;-82
2023/08/06 02:05:28;;;;;;;17.80;12.67;;;;;;;-141.97;76.30;47463.34;5052369;28;20617;-81
2023/08/06 02:07:54;;;;;;;16.50;13.03;;;;;;;-141.97;76.47;47446.03;5052997;28;20153;-81
2023/08/06 02:10:19;;;;;;;19.07;12.97;;;;;;;-141.97;75.98;47251.94;5052676;28;20162;-81
2023/08/06 02:12:45;;;;;;;17.57;12.67;;;;;;;-141.97;75.93;47570.97;5052459;28;20193;-81
2023/08/06 02:15:10;;;;;;;16.27;12.70;;;;;;;-141.97;76.06;47203.88;5052118;28;20189;-81
2023/08/06 02:17:35;;;;;;;15.10;12.50;;;;;;;-141.97;76.09;47417.22;5051862;28;20661;-81
2023/08/06 02:20:01;;;;;;;14.83;12.60;;;;;;;-141.97;75.69;47422.97;5052210;28;20165;-81
2023/08/06 02:22:26;;;;;;;16.87;13.27;;;;;;;-141.97;76.15;47449.88;5052462;28;20173;-79
2023/08/06 02:24:52;;;;;;;15.70;13.33;;;;;;;-141.97;76.21;47457.56;5052119;28;20220;-80
2023/08/06 02:27:17;;;;;;;16.83;13.27;;;;;;;-141.97;76.09;47428.75;5052185;28;20668;-80
2023/08/06 02:29:43;;;;;;;17.70;13.40;;;;;;;-141.97;76.08;47428.75;5051869;28;20216;-83
2023/08/06 02:32:08;;;;;;;17.37;13.90;;;;;;;-141.97;76.33;47461.41;5051807;28;20166;-83
2023/08/06 02:34:33;;;;;;;15.90;13.50;;;;;;;-141.97;76.38;47407.59;5052058;28;20606;-83
2023/08/06 02:36:59;;;;;;;17.37;13.87;;;;;;;-141.97;76.02;47644.00;5051996;28;20269;-83
2023/08/06 02:39:25;;;;;;;20.43;14.40;;;;;;;-141.97;76.08;47446.03;5051851;28;20233;-83
2023/08/06 02:41:50;;;;;;;19.30;14.03;;;;;;;-141.97;76.05;47599.81;5051967;28;20189;-83
2023/08/06 02:44:16;;;;;;;18.10;13.87;;;;;;;-141.97;75.67;47442.19;5033454;28;20597;-83
2023/08/06 02:46:41;;;;;;;17.13;14.20;;;;;;;-141.97;75.62;47622.88;5051791;28;20640;-83
2023/08/06 02:49:07;;;;;;;18.10;14.43;;;;;;;-141.97;75.74;47307.66;5051822;28;20184;-83
2023/08/06 02:51:32;;;;;;;18.23;15.43;;;;;;;-141.97;75.92;47471.03;5034567;28;20161;-83
2023/08/06 02:53:57;;;;;;;19.00;15.73;;;;;;;-141.97;76.25;47469.09;5051666;28;20230;-83
2023/08/06 02:56:23;;;;;;;19.40;15.83;;;;;;;-141.97;75.76;47549.84;5051416;28;20177;-83
2023/08/06 02:58:48;;;;;;;22.63;15.40;;;;;;;-141.97;75.15;47453.72;5051520;28;20171;-83
2023/08/06 03:01:14;;;;;;;18.53;15.87;;;;;;;-141.97;75.66;47444.13;5035604;28;20169;-83
2023/08/06 03:03:39;;;;;;;20.63;16.57;;;;;;;-141.97;74.98;47321.13;5065279;28;20166;-81
2023/08/06 03:06:05;;;;;;;19.37;16.17;;;;;;;-141.97;75.58;47455.66;5072262;28;20162;-82
2023/08/06 03:08:30;;;;;;;23.50;17.90;;;;;;;-141.97;76.46;47461.41;5051658;28;20276;-81
2023/08/06 03:10:56;;;;;;;21.53;18.17;;;;;;;-141.97;76.78;47317.28;5033031;28;20180;-81
2023/08/06 03:13:21;;;;;;;24.50;19.00;;;;;;;-141.97;77.33;47457.56;5050891;28;20182;-80
2023/08/06 03:15:57;;;;;;;24.33;18.63;;;;;;;-141.97;77.02;47334.56;5049694;28;20165;-80
2023/08/06 03:18:23;;;;;;;23.20;18.37;;;;;;;-141.97;76.58;47449.88;5050687;28;20165;-81
2023/08/06 03:20:48;;;;;;;24.27;18.87;;;;;;;-141.97;76.60;47684.38;5051018;28;20347;-82
2023/08/06 03:23:14;;;;;;;26.50;18.87;;;;;;;-141.97;76.64;47453.72;5050566;28;20176;-81
2023/08/06 03:25:39;;;;;;;24.47;19.00;;;;;;;-141.97;76.47;47369.16;5050481;28;20248;-82
2023/08/06 03:28:05;;;;;;;24.77;20.60;;;;;;;-141.97;76.96;47576.75;5050824;28;20167;-81
2023/08/06 03:30:30;;;;;;;25.90;19.87;;;;;;;-141.97;77.40;47392.22;5050582;28;20524;-80
2023/08/06 03:32:55;;;;;;;29.13;21.17;;;;;;;-141.97;77.10;47576.75;5050367;28;20275;-81
2023/08/06 03:35:21;;;;;;;29.80;21.63;;;;;;;-141.97;77.85;47357.63;5050177;28;20166;-83
2023/08/06 03:37:46;;;;;;;28.23;22.57;;;;;;;-141.97;77.89;47401.84;5050180;28;20217;-82
2023/08/06 03:40:11;;;;;;;30.17;22.10;;;;;;;-141.97;78.25;47434.50;5050456;28;20162;-81
2023/08/06 03:42:37;;;;;;;28.47;23.03;;;;;;;-141.97;78.85;47447.97;5050554;28;20193;-81
2023/08/06 03:45:03;;;;;;;28.90;22.30;;;;;;;-141.97;79.00;47476.78;5050644;28;20595;-81
2023/08/06 03:47:28;;;;;;;31.97;22.97;;;;;;;-141.97;78.10;47461.41;5050692;28;20220;-81
2023/08/06 03:49:53;;;;;;;29.77;22.97;;;;;;;-141.97;78.02;47559.44;5050246;28;20166;-80
2023/08/06 03:52:19;;;;;;;26.50;22.50;;;;;;;-141.97;77.75;47476.78;5050376;28;20176;-81
2023/08/06 03:54:44;;;;;;;31.13;23.80;;;;;;;-141.97;77.40;47442.19;5049915;28;20269;-82
2023/08/06 03:57:10;;;;;;;31.67;23.30;;;;;;;-141.97;77.74;47319.19;5050199;28;20540;-82
2023/08/06 03:59:35;;;;;;;30.23;23.33;;;;;;;-141.97;77.47;47434.50;5050525;28;20158;-81
2023/08/06 04:02:01;;;;;;;28.50;23.20;;;;;;;-141.97;77.53;47221.19;5066447;28;20540;-82
2023/08/06 04:04:26;;;;;;;29.30;23.13;;;;;;;-141.97;77.91;47467.19;5054155;28;20162;-82
2023/08/06 04:06:52;;;;;;;30.30;23.17;;;;;;;-141.97;78.02;47465.25;5069578;28;20529;-82
2023/08/06 04:09:17;;;;;;;29.87;23.30;;;;;;;-141.97;78.97;47430.66;5050729;28;20233;-83
2023/08/06 04:11:42;;;;;;;30.10;23.20;;;;;;;-141.97;78.65;47499.84;5064709;28;20185;-82
2023/08/06 04:14:08;;;;;;;29.63;24.40;;;;;;;-141.97;78.88;47463.34;5049339;28;20247;-83
2023/08/06 04:16:33;;;;;;;31.97;23.67;;;;;;;-141.97;77.98;47622.88;5049071;28;20173;-84
2023/08/06 04:18:59;;;;;;;32.70;24.20;;;;;;;-141.97;77.58;47484.47;5049298;28;20667;-83
2023/08/06 04:21:24;;;;;;;31.10;23.53;;;;;;;-141.97;78.23;47692.06;5049573;28;20185;-84
2023/08/06 04:23:50;;;;;;;33.30;24.87;;;;;;;-141.97;77.88;47461.41;5049549;28;20169;-83
2023/08/06 04:26:15;;;;;;;30.70;25.20;;;;;;;-141.97;77.33;47472.94;5049329;28;20169;-83
2023/08/06 04:28:41;;;;;;;32.00;24.43;;;;;;;-141.97;77.53;47615.19;5049693;28;20177;-82
2023/08/06 04:31:06;;;;;;;31.63;24.57;;;;;;;-141.97;76.74;47532.53;5049008;28;20174;-82
2023/08/06 04:33:31;;;;;;;31.53;25.37;;;;;;;-141.97;76.70;47676.69;5049073;28;20276;-83
2023/08/06 04:35:57;;;;;;;31.73;25.57;;;;;;;-141.97;76.51;47453.72;5049163;28;20544;-83
2023/08/06 04:38:26;;;;;;;34.90;26.67;;;;;;;-141.97;76.49;47405.69;5049076;28;20229;-81
2023/08/06 04:40:52;;;;;;;32.27;25.80;;;;;;;-141.97;76.53;47273.06;5049018;28;20181;-81
2023/08/06 04:43:17;;;;;;;32.80;25.30;;;;;;;-141.97;76.11;47361.47;5048900;28;20213;-82
2023/08/06 04:45:47;;;;;;;31.90;25.53;;;;;;;-141.97;75.43;47349.94;5049428;28;20200;-82
2023/08/06 04:48:13;;;;;;;31.13;24.97;;;;;;;-141.97;74.68;47655.53;5064628;28;20174;-82
2023/08/06 04:50:38;;;;;;;32.28;25.95;;;;;;;-141.97;74.22;47480.63;5064440;28;20186;-81
2023/08/06 04:53:03;;;;;;;31.95;25.20;;;;;;;-141.97;73.65;47336.50;5049535;28;20189;-83
2023/08/06 04:55:29;;;;;;;32.85;26.55;;;;;;;-141.97;73.11;47213.50;5049307;28;20648;-83
2023/08/06 04:57:54;;;;;;;32.08;26.40;;;;;;;-141.97;74.00;47373.00;5049068;28;20164;-81
2023/08/06 05:00:19;;;;;;;34.20;25.63;;;;;;;-141.97;73.92;47446.03;5049250;28;20605;-82
2023/08/06 05:02:45;;;;;;;35.20;26.92;;;;;;;-141.97;74.03;47453.72;5049201;28;20254;-82
2023/08/06 05:05:10;;;;;;;34.13;26.38;;;;;;;-141.97;74.34;47636.31;5049789;28;20225;-83
2023/08/06 05:07:41;;;;;;;33.60;26.37;;;;;;;-141.97;75.30;47424.91;5064592;28;20258;-83
2023/08/06 05:10:07;;;;;;;33.57;26.03;;;;;;;-141.97;75.01;47484.47;5064497;28;21020;-84
2023/08/06 05:12:32;;;;;;;34.35;25.90;;;;;;;-141.97;74.39;47344.19;5049211;28;20251;-84
2023/08/06 05:14:57;;;;;;;34.22;27.10;;;;;;;-141.97;73.44;47388.38;5049127;28;20185;-83
2023/08/06 05:17:24;;;;;;;33.05;25.90;;;;;;;-141.97;73.78;47203.88;5048734;28;20172;-83
2023/08/06 05:19:49;;;;;;;33.75;26.65;;;;;;;-141.97;73.76;47695.91;5048829;28;20178;-85
2023/08/06 05:22:14;;;;;;;35.40;27.08;;;;;;;-141.97;74.07;47184.66;5048993;28;20557;-85
2023/08/06 05:24:40;;;;;;;36.22;26.67;;;;;;;-141.97;74.95;47363.41;5048252;28;20587;-84
2023/08/06 05:27:05;;;;;;;35.37;27.00;;;;;;;-141.97;76.12;47588.28;5030949;28;20163;-85
2023/08/06 05:29:31;;;;;;;34.27;24.20;;;;;;;-141.97;77.79;47438.34;5052200;28;20198;-86
2023/08/06 05:31:56;;;;;;;31.83;25.40;;;;;;;-141.97;77.50;47284.59;5071949;28;20230;-86
2023/08/06 05:34:21;;;;;;;33.87;24.90;;;;;;;-141.97;77.64;47324.97;5061273;28;20267;-86
2023/08/06 05:36:47;;;;;;;32.07;21.43;;;;;;;-141.97;76.43;47695.91;5030909;28;20549;-86
2023/08/06 05:39:12;;;;;;;28.90;20.27;;;;;;;-141.97;78.97;47421.06;5033009;28;20217;-81
2023/08/06 05:41:38;;;;;;;23.30;17.80;;;;;;;-141.97;80.27;47695.91;5053517;28;20200;-81
2023/08/06 05:44:03;;;;;;;23.60;15.83;;;;;;;-141.97;80.72;47570.97;5056252;28;20637;-76
2023/08/06 05:46:28;;;;;;;20.40;13.43;;;;;;;-141.97;81.04;47511.38;5054001;28;20196;-77
2023/08/06 05:48:54;;;;;;;18.30;12.17;;;;;;;-141.97;81.83;47494.09;5052817;28;20252;-78
2023/08/06 05:51:20;;;;;;;21.60;12.63;;;;;;;-141.97;82.70;47522.91;5052967;28;20165;-79
2023/08/06 05:53:46;;;;;;;17.97;12.03;;;;;;;-141.97;83.54;47494.09;5053433;28;20741;-78
2023/08/06 05:56:12;;;;;;;17.37;11.63;;;;;;;-141.97;81.87;47398.00;5052808;28;20181;-78
2023/08/06 05:58:37;;;;;;;20.10;12.07;;;;;;;-141.97;83.17;47515.22;5053080;28;20539;-78
2023/08/06 06:01:03;;;;;;;15.10;11.10;;;;;;;-141.97;83.54;47465.25;5040362;28;20216;-79
2023/08/06 06:03:28;;;;;;;18.47;11.63;;;;;;;-141.97;85.29;47519.06;5033082;28;20193;-78
2023/08/06 06:05:53;;;;;;;16.63;11.43;;;;;;;-141.97;85.55;47488.31;5070902;28;20500;-79
2023/08/06 06:08:19;;;;;;;18.33;11.40;;;;;;;-141.97;85.52;47434.50;5052480;28;20191;-78
2023/08/06 06:10:44;;;;;;;16.30;11.80;;;;;;;-141.97;85.50;47515.22;5052305;28;20166;-79
2023/08/06 06:13:10;;;;;;;19.07;12.20;;;;;;;-141.97;85.99;47486.41;5052150;28;20713;-78
2023/08/06 06:15:35;;;;;;;16.10;10.60;;;;;;;-141.97;82.94;47511.38;5052317;28;20191;-78
2023/08/06 06:18:00;;;;;;;16.10;11.20;;;;;;;-141.97;82.74;47503.69;5052049;28;20172;-80
2023/08/06 06:20:26;;;;;;;16.57;11.57;;;;;;;-141.97;85.08;47553.69;5052569;28;20651;-78
2023/08/06 06:22:51;;;;;;;18.83;11.90;;;;;;;-141.97;84.75;47522.91;5052480;28;20165;-78
2023/08/06 06:25:16;;;;;;;16.37;11.87;;;;;;;-141.97;82.98;47526.75;5068131;28;20641;-78
2023/08/06 06:27:42;;;;;;;17.00;11.80;;;;;;;-141.97;85.07;47509.47;5051780;28;20161;-78
2023/08/06 06:30:08;;;;;;;18.27;11.80;;;;;;;-141.97;84.61;47522.91;5053557;28;20170;-78
2023/08/06 06:32:34;;;;;;;17.57;12.10;;;;;;;-141.97;83.70;47680.53;5055126;28;20280;-78
2023/08/06 06:35:02;;;;;;;19.60;11.47;;;;;;;-141.97;81.58;47499.84;5053712;28;20170;-79
2023/08/06 06:37:27;;;;;;;15.90;11.20;;;;;;;-141.97;79.78;47544.06;5053350;28;20173;-78
2023/08/06 06:39:52;;;;;;;19.27;12.40;;;;;;;-141.97;80.87;47461.41;5052454;28;20556;-78
2023/08/06 06:42:18;;;;;;;15.77;11.10;;;;;;;-141.97;79.63;47538.28;5051789;28;20177;-77
2023/08/06 06:44:43;;;;;;;15.07;11.40;;;;;;;-141.97;79.06;47492.16;5051618;28;20161;-77
2023/08/06 06:47:08;;;;;;;17.77;10.63;;;;;;;-141.97;78.10;47517.16;5051090;28;20680;-79
2023/08/06 06:49:34;;;;;;;17.77;11.50;;;;;;;-141.97;78.60;47496.00;5051542;28;20235;-78
2023/08/06 06:51:59;;;;;;;15.23;11.27;;;;;;;-141.97;78.84;47509.47;5051123;28;20184;-78
2023/08/06 06:54:25;;;;;;;18.63;12.43;;;;;;;-141.97;78.66;47494.09;5051450;28;20288;-78
2023/08/06 06:56:50;;;;;;;14.53;11.13;;;;;;;-141.97;78.63;47515.22;5045054;28;20607;-77
2023/08/06 06:59:15;;;;;;;19.10;13.43;;;;;;;-141.97;78.78;47509.47;5035584;28;20239;-78
2023/08/06 07:01:41;;;;;;;22.93;16.87;;;;;;;-141.97;79.46;47546.00;5049603;28;20282;-78
2023/08/06 07:04:06;;;;;;;26.33;17.97;;;;;;;-141.97;79.84;47511.38;5049630;28;20196;-78
2023/08/06 07:06:32;;;;;;;24.27;15.90;;;;;;;-141.97;79.73;47472.94;5049846;28;20177;-79
2023/08/06 07:08:57;;;;;;;18.07;14.00;;;;;;;-141.97;79.54;47530.59;5067258;28;20544;-77
2023/08/06 07:11:22;;;;;;;17.30;12.70;;;;;;;-141.97;78.85;47513.31;5052989;28;20212;-79
2023/08/06 07:13:55;;;;;;;14.23;10.93;;;;;;;-141.97;78.03;47499.84;5069997;28;20200;-78
2023/08/06 07:16:21;;;;;;;18.67;12.03;;;;;;;-141.97;78.66;47534.44;5059713;28;20195;-77
2023/08/06 07:18:46;;;;;;;16.63;11.57;;;;;;;-141.97;78.16;47509.47;5048768;28;20666;-78
2023/08/06 07:21:11;;;;;;;17.43;11.80;;;;;;;-141.97;76.66;47472.94;5050001;28;20173;-77
2023/08/06 07:23:37;;;;;;;14.03;11.23;;;;;;;-141.97;74.03;47595.97;5049258;28;20169;-78
2023/08/06 07:26:02;;;;;;;14.03;11.50;;;;;;;-141.97;73.91;47490.25;5049439;28;20510;-78
2023/08/06 07:28:27;;;;;;;14.83;11.40;;;;;;;-141.97;72.13;47519.06;5049457;28;20177;-78
2023/08/06 07:30:53;;;;;;;16.10;11.47;;;;;;;-141.97;71.57;47478.72;5050059;28;20621;-77
2023/08/06 07:33:18;;;;;;;16.63;12.00;;;;;;;-141.97;70.63;47490.25;5031849;28;20197;-78
2023/08/06 07:35:44;;;;;;;15.13;12.90;;;;;;;-141.97;72.80;47499.84;5049913;28;20264;-78
2023/08/06 07:38:09;;;;;;;16.93;12.67;;;;;;;-141.97;72.79;47494.09;5048774;28;20221;-79
2023/08/06 07:40:38;;;;;;;14.83;12.60;;;;;;;-141.97;71.31;47684.38;5048315;28;20185;-79
2023/08/06 07:43:03;;;;;;;16.17;12.77;;;;;;;-141.97;70.76;47511.38;5049882;28;20540;-79
2023/08/06 07:45:33;;;;;;;18.80;13.50;;;;;;;-141.97;69.25;47480.63;5050000;28;20197;-77
2023/08/06 07:47:59;;;;;;;18.60;14.00;;;;;;;-141.97;70.20;47474.88;5050656;28;20169;-77
2023/08/06 07:50:24;;;;;;;21.57;14.30;;;;;;;-141.97;71.72;47459.50;5049310;28;20184;-77
2023/08/06 07:52:50;;;;;;;18.93;14.00;;;;;;;-141.97;72.06;47480.63;5049503;28;20191;-79
2023/08/06 07:55:15;;;;;;;21.20;14.80;;;;;;;-141.97;73.04;47515.22;5053520;28;20247;-79
2023/08/06 07:57:41;;;;;;;20.97;15.20;;;;;;;-141.97;73.71;47521.00;5073858;28;20181;-76
2023/08/06 08:00:06;;;;;;;21.37;15.00;;;;;;;-141.97;74.60;47467.19;5069436;28;20233;-77
2023/08/06 08:02:32;;;;;;;20.67;15.20;;;;;;;-141.97;75.96;47480.63;5047556;28;20181;-77
2023/08/06 08:04:57;;;;;;;23.23;15.63;;;;;;;-141.97;75.98;47472.94;5048890;28;20204;-77
2023/08/06 08:07:23;;;;;;;26.07;16.97;;;;;;;-141.97;75.89;47549.84;5030252;28;20183;-76
2023/08/06 08:09:48;;;;;;;23.53;17.97;;;;;;;-141.97;76.23;47515.22;5048931;28;20186;-77
2023/08/06 08:12:13;;;;;;;23.87;18.43;;;;;;;-141.97;75.93;47503.69;5031449;28;20165;-77
2023/08/06 08:14:39;;;;;;;23.83;18.63;;;;;;;-141.97;76.44;47496.00;5049037;28;20208;-77
2023/08/06 08:17:05;;;;;;;25.83;18.60;;;;;;;-141.97;76.71;47480.63;5049394;28;20224;-77
2023/08/06 08:19:32;;;;;;;23.73;18.80;;;;;;;-141.97;77.20;47503.69;5048877;28;20314;-77
2023/08/06 08:21:57;;;;;;;23.50;17.67;;;;;;;-141.97;77.03;47447.97;5048883;28;20204;-78
2023/08/06 08:24:26;;;;;;;24.23;17.57;;;;;;;-141.97;76.95;47511.38;5048221;28;20271;-78
2023/08/06 08:26:52;;;;;;;22.03;17.50;;;;;;;-141.97;76.51;47496.00;5030684;28;20668;-78
2023/08/06 08:29:20;;;;;;;22.33;17.13;;;;;;;-141.97;76.24;47472.94;5048546;28;20181;-79
2023/08/06 08:31:48;;;;;;;22.77;16.70;;;;;;;-141.97;75.96;47511.38;5048424;28;20173;-79
2023/08/06 08:34:14;;;;;;;25.47;17.90;;;;;;;-141.97;76.47;47496.00;5029929;28;20189;-78
2023/08/06 08:36:39;;;;;;;25.10;17.17;;;;;;;-141.97;76.20;47511.38;5048126;28;20501;-78
2023/08/06 08:39:05;;;;;;;25.33;17.60;;;;;;;-141.97;75.92;47496.00;5047991;28;20267;-78
2023/08/06 08:41:31;;;;;;;22.57;17.20;;;;;;;-141.97;75.24;47546.00;5048196;28;20831;-79
2023/08/06 08:43:59;;;;;;;22.37;17.07;;;;;;;-141.97;75.30;47461.41;5063836;28;20192;-78
2023/08/06 08:46:27;;;;;;;24.10;16.43;;;;;;;-141.97;74.22;47513.31;5047287;28;20185;-77
2023/08/06 08:48:54;;;;;;;19.77;16.20;;;;;;;-141.97;73.53;47503.69;5063301;28;20196;-78
2023/08/06 08:51:20;;;;;;;20.97;15.57;;;;;;;-141.97;72.64;47499.84;5048310;28;20258;-78
2023/08/06 08:53:48;;;;;;;20.67;16.03;;;;;;;-141.97;72.40;47496.00;5048403;28;20251;-79
2023/08/06 08:56:14;;;;;;;21.03;17.27;;;;;;;-141.97;70.34;47492.16;5048694;28;20607;-79
2023/08/06 08:58:40;;;;;;;21.48;16.15;;;;;;;-141.97;68.73;47699.75;5048343;28;20177;-80
2023/08/06 09:01:07;;;;;;;20.42;16.30;;;;;;;-141.97;67.60;47482.56;5036182;28;20256;-80
2023/08/06 09:03:33;;;;;;;22.58;17.67;;;;;;;-141.97;64.40;47459.50;5047132;28;20190;-79
2023/08/06 09:06:01;;;;;;;21.77;17.80;;;;;;;-141.97;63.47;47449.88;5048456;28;20568;-80
2023/08/06 09:08:31;;;;;;;17.15;13.73;;;;;;;-141.97;60.02;47446.03;5049159;28;20191;-80
2023/08/06 09:10:57;;;;;;;17.35;13.32;;;;;;;-141.97;58.43;47434.50;5047384;28;20188;-80
2023/08/06 09:13:23;;;;;;;17.90;14.55;;;;;;;-141.97;59.32;47430.66;5049030;28;20196;-80
2023/08/06 09:15:50;;;;;;;8.38;7.47;;;;;;;-141.97;55.46;47413.38;5063550;28;20162;-79
2023/08/06 09:18:26;;;;;;;8.52;7.63;;;;;;;-141.97;53.69;47392.22;5071947;28;20188;-79
2023/08/06 09:20:52;;;;;;;8.57;6.90;;;;;;;-141.97;53.47;47438.34;5071976;28;20176;-79
2023/08/06 09:23:17;;;;;;;6.97;6.15;;;;;;;-141.97;52.29;47392.22;5054841;28;20169;-80
2023/08/06 09:25:43;;;;;;;7.07;6.32;;;;;;;-141.97;52.95;47394.16;5071854;28;20636;-80
2023/08/06 09:28:08;;;;;;;7.25;6.00;;;;;;;-141.97;51.94;47546.00;5072183;28;20183;-81
2023/08/06 09:30:37;;;;;;;7.25;5.88;;;;;;;-141.97;51.03;47376.84;5072168;28;20218;-80
2023/08/06 09:33:02;;;;;;;6.30;5.70;;;;;;;-141.97;51.24;47409.53;5072095;28;20229;-82
2023/08/06 09:35:30;;;;;;;6.70;5.40;;;;;;;-141.97;50.88;47373.00;5072615;28;20194;-79
2023/08/06 09:37:55;;;;;;;6.00;5.28;;;;;;;-141.97;49.83;47426.81;5071705;28;20239;-80
2023/08/06 09:40:31;;;;;;;6.13;5.53;;;;;;;-141.97;50.96;47422.97;5042123;28;20181;-79
2023/08/06 09:42:58;;;;;;;7.03;6.32;;;;;;;-141.97;50.53;47422.97;5052250;28;20183;-80
2023/08/06 09:45:30;;;;;;;6.47;5.72;;;;;;;-141.97;50.32;47398.00;5052151;28;20215;-79
2023/08/06 09:47:56;;;;;;;9.27;6.45;;;;;;;-141.97;50.51;47403.75;5052426;28;20181;-78
2023/08/06 09:50:23;;;;;;;8.60;6.20;;;;;;;-141.97;48.42;47338.41;5052165;28;20555;-79
2023/08/06 09:52:48;;;;;;;8.25;6.20;;;;;;;-141.97;47.22;47603.66;5051856;28;20172;-80
2023/08/06 09:55:14;;;;;;;7.57;5.97;;;;;;;-141.97;47.17;47351.88;5053142;28;20186;-79
2023/08/06 09:57:41;;;;;;;7.80;6.10;;;;;;;-141.97;47.86;47361.47;5034023;28;20206;-80
2023/08/06 10:00:11;;;;;;;8.93;7.97;;;;;;;-141.97;47.69;47380.69;5051512;28;20608;-79
2023/08/06 10:02:40;;;;;;;12.38;9.07;;;;;;;-141.97;46.36;47236.56;5040753;28;20231;-79
2023/08/06 10:05:09;;;;;;;11.55;8.70;;;;;;;-141.97;46.01;47376.84;5051788;28;20248;-79
2023/08/06 10:07:35;;;;;;;9.75;8.75;;;;;;;-141.97;45.63;47380.69;5050912;28;20184;-80
2023/08/06 10:10:02;;;;;;;12.50;9.82;;;;;;;-141.97;45.85;47382.63;5051262;28;20172;-79
2023/08/06 10:12:38;;;;;;;10.43;8.95;;;;;;;-141.97;44.84;47369.16;5071251;28;20179;-80
2023/08/06 10:15:08;;;;;;;11.25;8.93;;;;;;;-141.97;44.24;47292.28;5071883;28;20191;-79
2023/08/06 10:17:36;;;;;;;10.38;8.73;;;;;;;-141.97;41.97;47363.41;5071894;28;20192;-78
2023/08/06 10:20:06;;;;;;;9.48;8.48;;;;;;;-141.97;42.54;47373.00;5094192;28;20187;-80
2023/08/06 10:22:33;;;;;;;10.75;8.27;;;;;;;-141.97;43.12;47388.38;5095961;28;20193;-81
2023/08/06 10:25:06;;;;;;;10.98;8.75;;;;;;;-141.97;43.56;47378.78;5068488;28;20216;-81
2023/08/06 10:27:35;;;;;;;41.58;28.75;;;;;;;-141.97;43.51;47355.72;5070349;28;20190;-79
2023/08/06 10:30:24;;;;;;;9.35;8.45;;;;;;;-141.97;43.21;47365.31;5070748;28;20213;-80
2023/08/06 10:32:51;;;;;;;9.52;8.35;;;;;;;-141.97;43.48;47353.78;5066588;28;20187;-80
2023/08/06 10:35:35;;;;;;;9.63;8.63;;;;;;;-141.97;42.40;47357.63;5030992;28;20173;-81
2023/08/06 10:38:21;;;;;;;9.60;8.25;;;;;;;-141.97;42.07;47361.47;5030738;28;20267;-80
2023/08/06 10:40:52;;;;;;;9.25;7.03;;;;;;;-141.97;43.26;47342.25;5034551;28;20196;-81
2023/08/06 10:43:34;;;;;;;8.88;7.93;;;;;;;-141.97;44.04;47382.63;5037213;28;20261;-79
2023/08/06 10:46:04;;;;;;;10.13;8.27;;;;;;;-141.97;42.57;47390.31;5044673;28;20272;-79
2023/08/06 10:48:38;;;;;;;9.10;8.20;;;;;;;-141.97;41.70;47361.47;5014189;28;20168;-81
2023/08/06 10:51:10;;;;;;;10.38;8.15;;;;;;;-141.97;42.86;47371.09;5051227;28;20176;-81
2023/08/06 10:53:36;;;;;;;9.32;8.43;;;;;;;-141.97;42.38;47394.16;5051543;28;20215;-80
2023/08/06 10:56:02;;;;;;;9.63;8.07;;;;;;;-141.97;41.73;47369.16;5049683;28;20179;-80
2023/08/06 10:58:33;;;;;;;9.90;8.27;;;;;;;-141.97;42.31;47403.75;5050191;28;20215;-81
2023/08/06 11:00:59;;;;;;;8.68;7.78;;;;;;;-141.97;42.14;47357.63;5032992;28;20185;-81